Time;durP1;ratioP1;P1;durP2;ratioP2;P2;SDS_P1;SDS_P2;PMS_P1;PMS_P2;Temp;Humidity;BMP_temperature;BMP_pressure;BME280_temperature;BME280_humidity;BME280_pressure;Samples;Min_cycle;Max_cycle;Signal;HPM_P1;HPM_P2
2024/02/02 00:02:40;;;;;;;1.30;1.17;;;;;;;;;;6184041;28;20297;-54
2024/02/02 00:05:45;;;;;;;2.10;0.80;;;;;;;;;;6183838;28;20294;-55
2024/02/02 00:08:49;;;;;;;5.37;0.90;;;;;;;;;;6183443;28;20293;-57
2024/02/02 00:11:54;;;;;;;1.10;0.97;;;;;;;;;;6183483;28;20361;-56
2024/02/02 00:14:59;;;;;;;2.20;1.10;;;;;;;;;;6183070;28;20319;-57
2024/02/02 00:18:03;;;;;;;1.33;0.83;;;;;;;;;;6182548;28;20301;-57
2024/02/02 00:21:07;;;;;;;0.93;0.87;;;;;;;;;;6184038;28;20317;-56
2024/02/02 00:24:11;;;;;;;4.63;1.00;;;;;;;;;;6187660;28;20295;-57
2024/02/02 00:27:18;;;;;;;0.80;0.80;;;;;;;;;;6188604;28;20296;-54
2024/02/02 00:30:22;;;;;;;3.27;0.83;;;;;;;;;;6187483;28;20301;-54
2024/02/02 00:33:26;;;;;;;3.43;1.00;;;;;;;;;;6186132;28;20297;-55
2024/02/02 00:36:30;;;;;;;3.10;0.90;;;;;;;;;;6188097;28;20297;-56
2024/02/02 00:39:35;;;;;;;4.93;1.00;;;;;;;;;;6188049;28;20338;-55
2024/02/02 00:42:42;;;;;;;2.10;0.93;;;;;;;;;;6188379;28;20317;-55
2024/02/02 00:45:46;;;;;;;1.00;1.00;;;;;;;;;;6187335;28;20312;-57
2024/02/02 00:48:50;;;;;;;0.80;0.80;;;;;;;;;;6187213;28;20298;-56
2024/02/02 00:51:54;;;;;;;1.10;1.10;;;;;;;;;;6187757;28;20301;-56
2024/02/02 00:54:58;;;;;;;1.43;0.83;;;;;;;;;;6187023;28;20285;-56
2024/02/02 00:58:04;;;;;;;0.97;0.77;;;;;;;;;;6185674;28;20291;-56
2024/02/02 01:01:08;;;;;;;3.90;0.80;;;;;;;;;;6168898;28;20301;-55
2024/02/02 01:04:12;;;;;;;0.77;0.70;;;;;;;;;;6185998;28;20312;-55
2024/02/02 01:07:16;;;;;;;1.17;0.80;;;;;;;;;;6187710;28;20298;-55
2024/02/02 01:10:21;;;;;;;0.73;0.73;;;;;;;;;;6186965;28;20342;-56
2024/02/02 01:13:27;;;;;;;0.80;0.70;;;;;;;;;;6185187;28;20286;-55
2024/02/02 01:16:31;;;;;;;6.37;1.20;;;;;;;;;;6187317;28;20483;-54
2024/02/02 01:19:37;;;;;;;5.70;1.03;;;;;;;;;;6186851;28;20302;-56
2024/02/02 01:22:41;;;;;;;4.57;1.03;;;;;;;;;;6187021;28;20300;-57
2024/02/02 01:25:45;;;;;;;2.30;1.03;;;;;;;;;;6186236;28;20584;-56
2024/02/02 01:28:50;;;;;;;0.90;0.90;;;;;;;;;;6186637;28;20410;-54
2024/02/02 01:31:54;;;;;;;0.90;0.90;;;;;;;;;;6186881;28;20293;-56
2024/02/02 01:34:59;;;;;;;0.80;0.80;;;;;;;;;;6185273;28;20293;-54
2024/02/02 01:38:04;;;;;;;7.83;1.30;;;;;;;;;;6186367;28;20288;-53
2024/02/02 01:41:08;;;;;;;3.70;0.90;;;;;;;;;;6185898;28;20370;-56
2024/02/02 01:44:13;;;;;;;0.87;0.87;;;;;;;;;;6185417;28;20308;-54
2024/02/02 01:47:17;;;;;;;1.27;0.93;;;;;;;;;;6176039;28;20304;-55
2024/02/02 01:50:21;;;;;;;2.10;0.90;;;;;;;;;;6185408;28;20257;-55
2024/02/02 01:53:26;;;;;;;2.00;0.83;;;;;;;;;;6175733;28;20334;-53
2024/02/02 01:56:30;;;;;;;1.30;0.90;;;;;;;;;;6187207;28;20312;-55
2024/02/02 01:59:35;;;;;;;0.87;0.87;;;;;;;;;;6186194;28;20300;-56
2024/02/02 02:02:39;;;;;;;4.73;1.60;;;;;;;;;;6168037;28;20302;-56
2024/02/02 02:05:43;;;;;;;1.00;1.00;;;;;;;;;;6186289;28;20298;-54
2024/02/02 02:08:47;;;;;;;0.83;0.83;;;;;;;;;;6186292;28;20342;-54
2024/02/02 02:11:52;;;;;;;2.43;1.10;;;;;;;;;;6169134;28;20473;-54
2024/02/02 02:14:58;;;;;;;1.67;0.83;;;;;;;;;;6185099;28;20481;-55
2024/02/02 02:18:02;;;;;;;1.07;0.97;;;;;;;;;;6185284;28;20571;-55
2024/02/02 02:21:26;;;;;;;1.70;1.00;;;;;;;;;;6185729;28;20297;-54
2024/02/02 02:24:30;;;;;;;9.70;1.10;;;;;;;;;;6184249;28;20314;-55
2024/02/02 02:27:34;;;;;;;0.93;0.93;;;;;;;;;;6185430;28;20295;-55
2024/02/02 02:30:38;;;;;;;2.17;1.00;;;;;;;;;;6185262;28;20566;-55
2024/02/02 02:33:43;;;;;;;2.00;1.07;;;;;;;;;;6185046;28;20562;-55
2024/02/02 02:36:49;;;;;;;3.80;1.20;;;;;;;;;;6185297;28;20388;-55
2024/02/02 02:39:52;;;;;;;1.33;1.00;;;;;;;;;;6185059;28;20289;-55
2024/02/02 02:42:56;;;;;;;0.90;0.90;;;;;;;;;;6183321;28;20295;-56
2024/02/02 02:46:00;;;;;;;3.00;0.90;;;;;;;;;;6184784;28;20395;-58
2024/02/02 02:49:05;;;;;;;1.10;1.00;;;;;;;;;;6184705;28;20510;-57
2024/02/02 02:52:10;;;;;;;0.90;0.90;;;;;;;;;;6185406;28;20484;-57
2024/02/02 02:55:14;;;;;;;1.70;1.10;;;;;;;;;;6184753;28;20297;-57
2024/02/02 02:58:18;;;;;;;3.83;1.10;;;;;;;;;;6183476;28;20308;-56
2024/02/02 03:01:22;;;;;;;2.60;1.40;;;;;;;;;;6185469;28;20296;-59
2024/02/02 03:04:27;;;;;;;0.90;0.90;;;;;;;;;;6184807;28;20301;-57
2024/02/02 03:07:32;;;;;;;1.30;1.10;;;;;;;;;;6183816;28;20305;-57
2024/02/02 03:10:36;;;;;;;2.90;1.10;;;;;;;;;;6184337;28;20301;-56
2024/02/02 03:13:40;;;;;;;1.37;1.00;;;;;;;;;;6184321;28;20297;-55
2024/02/02 03:16:44;;;;;;;6.57;1.60;;;;;;;;;;6175922;28;20313;-55
2024/02/02 03:19:49;;;;;;;6.67;1.43;;;;;;;;;;6183892;28;20294;-55
2024/02/02 03:22:54;;;;;;;1.60;1.20;;;;;;;;;;6184059;28;20297;-56
2024/02/02 03:25:58;;;;;;;2.30;0.97;;;;;;;;;;6183901;28;20378;-57
2024/02/02 03:29:03;;;;;;;1.90;1.00;;;;;;;;;;6183782;28;20297;-54
2024/02/02 03:32:07;;;;;;;1.17;1.17;;;;;;;;;;6184237;28;20303;-54
2024/02/02 03:35:11;;;;;;;3.80;1.23;;;;;;;;;;6184253;28;20303;-56
2024/02/02 03:38:16;;;;;;;2.07;1.37;;;;;;;;;;6183516;28;20305;-56
2024/02/02 03:41:21;;;;;;;3.90;1.00;;;;;;;;;;6184472;28;20314;-54
2024/02/02 03:44:25;;;;;;;1.40;1.10;;;;;;;;;;6181637;28;20298;-53
2024/02/02 03:47:29;;;;;;;1.63;1.13;;;;;;;;;;6184691;28;20300;-52
2024/02/02 03:50:33;;;;;;;4.07;1.33;;;;;;;;;;6182571;28;20303;-54
2024/02/02 03:53:38;;;;;;;2.80;1.47;;;;;;;;;;6183988;28;20501;-55
2024/02/02 03:56:43;;;;;;;3.13;1.10;;;;;;;;;;6185871;28;20292;-55
2024/02/02 03:59:47;;;;;;;1.40;1.23;;;;;;;;;;6188580;28;20318;-55
2024/02/02 04:02:52;;;;;;;2.90;1.27;;;;;;;;;;6187666;28;20292;-56
2024/02/02 04:05:57;;;;;;;3.17;1.47;;;;;;;;;;6187912;28;20317;-55
2024/02/02 04:09:02;;;;;;;5.40;1.20;;;;;;;;;;6180329;28;20553;-54
2024/02/02 04:12:07;;;;;;;1.33;1.20;;;;;;;;;;6187155;28;20293;-55
2024/02/02 04:15:11;;;;;;;3.53;1.40;;;;;;;;;;6187411;28;20297;-53
2024/02/02 04:18:15;;;;;;;3.07;1.27;;;;;;;;;;6187767;28;20297;-56
2024/02/02 04:21:20;;;;;;;1.90;1.00;;;;;;;;;;6187704;28;20298;-55
2024/02/02 04:24:25;;;;;;;7.20;1.47;;;;;;;;;;6189456;28;20447;-53
2024/02/02 04:27:29;;;;;;;1.67;1.40;;;;;;;;;;6188248;28;20300;-56
2024/02/02 04:30:35;;;;;;;2.83;0.93;;;;;;;;;;6187669;28;20299;-56
2024/02/02 04:33:39;;;;;;;2.70;1.47;;;;;;;;;;6188941;28;20302;-57
2024/02/02 04:36:43;;;;;;;1.43;1.30;;;;;;;;;;6188033;28;20303;-56
2024/02/02 04:39:48;;;;;;;1.67;1.17;;;;;;;;;;6187535;28;20281;-55
2024/02/02 04:42:52;;;;;;;3.60;1.60;;;;;;;;;;6187964;28;20339;-58
2024/02/02 04:45:56;;;;;;;4.70;1.30;;;;;;;;;;6187492;28;20309;-56
2024/02/02 04:49:01;;;;;;;2.77;1.30;;;;;;;;;;6188329;28;20329;-56
2024/02/02 04:52:06;;;;;;;2.80;1.40;;;;;;;;;;6187076;28;20304;-56
2024/02/02 04:55:11;;;;;;;2.03;1.20;;;;;;;;;;6169615;28;20317;-55
2024/02/02 04:58:15;;;;;;;5.30;1.20;;;;;;;;;;6187260;28;20600;-56
2024/02/02 05:01:20;;;;;;;5.77;1.50;;;;;;;;;;6186910;28;20297;-56
2024/02/02 05:04:24;;;;;;;1.80;1.10;;;;;;;;;;6187263;28;20294;-56
2024/02/02 05:07:28;;;;;;;9.00;1.37;;;;;;;;;;6187471;28;20319;-55
2024/02/02 05:10:33;;;;;;;6.77;1.30;;;;;;;;;;6187029;28;20487;-58
2024/02/02 05:13:37;;;;;;;4.77;1.27;;;;;;;;;;6164049;28;20301;-55
2024/02/02 05:16:41;;;;;;;2.50;1.17;;;;;;;;;;6162864;28;20305;-56
2024/02/02 05:19:46;;;;;;;5.20;1.33;;;;;;;;;;6162887;28;20301;-56
2024/02/02 05:22:51;;;;;;;4.83;1.33;;;;;;;;;;6160893;28;20605;-55
2024/02/02 05:25:56;;;;;;;7.83;1.20;;;;;;;;;;6171268;28;20554;-57
2024/02/02 05:29:00;;;;;;;3.03;1.20;;;;;;;;;;6186995;28;20294;-55
2024/02/02 05:32:05;;;;;;;1.30;1.13;;;;;;;;;;6185869;28;20292;-55
2024/02/02 05:35:09;;;;;;;2.03;1.30;;;;;;;;;;6186007;28;20295;-55
2024/02/02 05:38:13;;;;;;;2.23;1.43;;;;;;;;;;6186192;28;20292;-56
2024/02/02 05:41:18;;;;;;;4.83;1.30;;;;;;;;;;6186200;28;20606;-55
2024/02/02 05:44:22;;;;;;;1.57;1.30;;;;;;;;;;6186321;28;20298;-54
2024/02/02 05:47:27;;;;;;;1.87;1.27;;;;;;;;;;6186481;28;20292;-56
2024/02/02 05:50:31;;;;;;;4.70;1.70;;;;;;;;;;6186490;28;20600;-58
2024/02/02 05:53:35;;;;;;;8.37;1.70;;;;;;;;;;6172345;28;20306;-57
2024/02/02 05:56:41;;;;;;;2.00;1.43;;;;;;;;;;6161876;28;20625;-55
2024/02/02 05:59:44;;;;;;;5.23;1.50;;;;;;;;;;6161852;28;20286;-58
2024/02/02 06:02:48;;;;;;;3.47;1.40;;;;;;;;;;6162402;29;20550;-55
2024/02/02 06:05:53;;;;;;;5.97;1.17;;;;;;;;;;6160549;28;20321;-55
2024/02/02 06:08:57;;;;;;;4.80;1.40;;;;;;;;;;6162200;29;20350;-57
2024/02/02 06:12:06;;;;;;;8.83;1.50;;;;;;;;;;6161282;28;20295;-54
2024/02/02 06:15:10;;;;;;;3.80;1.23;;;;;;;;;;6161768;28;20641;-58
2024/02/02 06:18:16;;;;;;;3.37;1.40;;;;;;;;;;6162080;28;20292;-58
2024/02/02 06:21:20;;;;;;;3.23;1.30;;;;;;;;;;6160401;28;20459;-57
2024/02/02 06:24:25;;;;;;;4.70;1.77;;;;;;;;;;6161402;28;20300;-56
2024/02/02 06:27:31;;;;;;;3.37;1.30;;;;;;;;;;6183078;28;20625;-55
2024/02/02 06:30:35;;;;;;;1.90;1.20;;;;;;;;;;6185459;28;20508;-56
2024/02/02 06:33:39;;;;;;;2.07;1.40;;;;;;;;;;6184423;28;20305;-57
2024/02/02 06:36:43;;;;;;;5.37;1.57;;;;;;;;;;6185212;28;20300;-57
2024/02/02 06:39:48;;;;;;;3.93;1.23;;;;;;;;;;6184693;28;20580;-57
2024/02/02 06:42:53;;;;;;;13.27;1.77;;;;;;;;;;6185153;28;20303;-56
2024/02/02 06:45:57;;;;;;;6.40;1.60;;;;;;;;;;6184606;28;20301;-57
2024/02/02 06:49:01;;;;;;;5.07;1.60;;;;;;;;;;6185215;28;20307;-57
2024/02/02 06:52:06;;;;;;;4.43;1.17;;;;;;;;;;6185621;28;20307;-55
2024/02/02 06:55:10;;;;;;;6.67;1.30;;;;;;;;;;6184945;28;20297;-55
2024/02/02 06:58:32;;;;;;;6.33;1.50;;;;;;;;;;6185233;28;20301;-55
2024/02/02 07:01:37;;;;;;;3.57;1.57;;;;;;;;;;6184691;28;20293;-56
2024/02/02 07:04:41;;;;;;;11.00;1.80;;;;;;;;;;6184168;28;20305;-56
2024/02/02 07:07:45;;;;;;;11.50;1.57;;;;;;;;;;6184794;28;20303;-55
2024/02/02 07:10:56;;;;;;;8.30;1.83;;;;;;;;;;6184679;28;20653;-56
2024/02/02 07:14:09;;;;;;;4.07;1.33;;;;;;;;;;6184775;28;20296;-59
2024/02/02 07:17:26;;;;;;;4.47;1.53;;;;;;;;;;6184030;28;20302;-56
2024/02/02 07:21:04;;;;;;;4.70;1.33;;;;;;;;;;6183878;28;20693;-56
2024/02/02 07:24:08;;;;;;;7.23;1.63;;;;;;;;;;6184277;28;20300;-59
2024/02/02 07:27:27;;;;;;;9.30;1.40;;;;;;;;;;6183905;28;20592;-55
2024/02/02 07:30:53;;;;;;;5.87;1.47;;;;;;;;;;6183640;28;20303;-56
2024/02/02 07:34:12;;;;;;;3.77;1.40;;;;;;;;;;6184502;28;20303;-55
2024/02/02 07:37:26;;;;;;;9.27;1.30;;;;;;;;;;6184189;28;20300;-56
2024/02/02 07:41:01;;;;;;;3.97;1.50;;;;;;;;;;6184067;28;20290;-57
2024/02/02 07:44:05;;;;;;;14.37;1.63;;;;;;;;;;6184885;28;20571;-57
2024/02/02 07:47:11;;;;;;;3.17;1.43;;;;;;;;;;6184153;28;20299;-58
2024/02/02 07:50:15;;;;;;;11.07;1.60;;;;;;;;;;6183948;28;20473;-58
2024/02/02 07:53:19;;;;;;;10.03;1.67;;;;;;;;;;6184585;28;20471;-57
2024/02/02 07:56:24;;;;;;;9.63;1.57;;;;;;;;;;6183868;28;20500;-56
2024/02/02 07:59:28;;;;;;;9.67;1.53;;;;;;;;;;6183665;28;20301;-55
2024/02/02 08:02:34;;;;;;;6.50;1.70;;;;;;;;;;6184180;28;20579;-55
2024/02/02 08:05:38;;;;;;;8.30;1.30;;;;;;;;;;6183809;28;20308;-55
2024/02/02 08:08:42;;;;;;;8.33;1.70;;;;;;;;;;6184307;28;20295;-55
2024/02/02 08:11:46;;;;;;;5.57;1.60;;;;;;;;;;6183541;28;20389;-59
2024/02/02 08:14:50;;;;;;;9.10;1.60;;;;;;;;;;6183856;28;20292;-55
2024/02/02 08:17:56;;;;;;;4.93;1.60;;;;;;;;;;6183709;28;20297;-56
2024/02/02 08:21:02;;;;;;;8.93;1.97;;;;;;;;;;6183220;28;20522;-57
2024/02/02 08:24:07;;;;;;;20.60;2.07;;;;;;;;;;6183796;28;20604;-56
2024/02/02 08:27:11;;;;;;;12.00;2.10;;;;;;;;;;6183446;28;20301;-58
2024/02/02 08:30:15;;;;;;;10.93;2.50;;;;;;;;;;6183585;28;20297;-58
2024/02/02 08:33:21;;;;;;;21.17;2.53;;;;;;;;;;6183291;28;20557;-61
2024/02/02 08:36:25;;;;;;;6.27;2.17;;;;;;;;;;6183175;28;20300;-57
2024/02/02 08:39:34;;;;;;;8.93;1.93;;;;;;;;;;6183316;28;20317;-55
2024/02/02 08:42:38;;;;;;;8.07;1.67;;;;;;;;;;6184498;28;20304;-57
2024/02/02 08:46:04;;;;;;;13.20;2.07;;;;;;;;;;6187579;28;20291;-56
2024/02/02 08:49:20;;;;;;;19.40;1.80;;;;;;;;;;6187884;28;20308;-58
2024/02/02 08:52:29;;;;;;;8.63;1.90;;;;;;;;;;6187826;28;20307;-56
2024/02/02 08:55:43;;;;;;;13.57;1.70;;;;;;;;;;6187397;28;20306;-57
2024/02/02 08:58:47;;;;;;;9.93;2.10;;;;;;;;;;6187921;28;20301;-57
2024/02/02 09:01:51;;;;;;;11.20;2.20;;;;;;;;;;6187137;28;20297;-58
2024/02/02 09:05:03;;;;;;;8.90;2.00;;;;;;;;;;6169228;28;20289;-57
2024/02/02 09:08:11;;;;;;;11.33;2.40;;;;;;;;;;6187347;28;20306;-59
2024/02/02 09:11:23;;;;;;;14.13;2.70;;;;;;;;;;6186726;28;20484;-55
2024/02/02 09:14:27;;;;;;;12.17;2.33;;;;;;;;;;6186914;28;20302;-56
2024/02/02 09:17:31;;;;;;;10.93;2.33;;;;;;;;;;6187462;28;20304;-55
2024/02/02 09:20:42;;;;;;;17.10;2.83;;;;;;;;;;6188245;28;20602;-59
2024/02/02 09:23:50;;;;;;;12.20;2.00;;;;;;;;;;6186883;28;20624;-58
2024/02/02 09:26:55;;;;;;;5.50;1.90;;;;;;;;;;6186650;28;20297;-58
2024/02/02 09:29:59;;;;;;;13.07;2.20;;;;;;;;;;6186968;28;20298;-57
2024/02/02 09:33:04;;;;;;;6.27;1.80;;;;;;;;;;6187199;28;20298;-58
2024/02/02 09:36:10;;;;;;;6.17;2.30;;;;;;;;;;6186842;28;20305;-57
2024/02/02 09:39:44;;;;;;;6.53;1.87;;;;;;;;;;6187042;28;20312;-57
2024/02/02 09:43:06;;;;;;;8.07;1.73;;;;;;;;;;6186563;28;20316;-56
2024/02/02 09:46:20;;;;;;;8.90;2.20;;;;;;;;;;6186192;28;20313;-58
2024/02/02 09:49:30;;;;;;;7.37;2.07;;;;;;;;;;6186279;28;20301;-57
2024/02/02 09:52:47;;;;;;;8.37;2.10;;;;;;;;;;6186635;28;20598;-57
2024/02/02 09:55:58;;;;;;;11.87;2.17;;;;;;;;;;6183733;28;20605;-56
2024/02/02 09:59:05;;;;;;;7.27;2.30;;;;;;;;;;6186642;28;20556;-57
2024/02/02 10:02:30;;;;;;;6.43;2.10;;;;;;;;;;6186183;28;20486;-57
2024/02/02 10:05:43;;;;;;;10.27;2.07;;;;;;;;;;6186069;28;20303;-57
2024/02/02 10:08:58;;;;;;;5.97;2.17;;;;;;;;;;6186705;28;20491;-57
2024/02/02 10:12:12;;;;;;;9.43;2.30;;;;;;;;;;6185846;28;20293;-57
2024/02/02 10:15:47;;;;;;;16.10;2.73;;;;;;;;;;6185911;28;20302;-57
2024/02/02 10:19:03;;;;;;;15.23;2.70;;;;;;;;;;6179103;28;20491;-58
2024/02/02 10:22:19;;;;;;;9.77;2.17;;;;;;;;;;6185642;28;20562;-58
2024/02/02 10:25:35;;;;;;;14.37;2.27;;;;;;;;;;6185349;28;20307;-58
2024/02/02 10:28:47;;;;;;;12.77;2.43;;;;;;;;;;6186068;28;20298;-58
2024/02/02 10:32:02;;;;;;;9.77;2.20;;;;;;;;;;6185730;28;20552;-57
2024/02/02 10:35:21;;;;;;;10.03;2.40;;;;;;;;;;6185090;28;20310;-59
2024/02/02 10:38:34;;;;;;;5.70;2.03;;;;;;;;;;6168075;28;20297;-58
2024/02/02 10:41:52;;;;;;;6.40;2.00;;;;;;;;;;6184414;28;20303;-58
2024/02/02 10:45:02;;;;;;;6.97;2.23;;;;;;;;;;6185565;28;20293;-57
2024/02/02 10:48:22;;;;;;;7.77;2.47;;;;;;;;;;6185586;28;20305;-59
2024/02/02 10:51:33;;;;;;;18.43;2.80;;;;;;;;;;6184928;28;20269;-57
2024/02/02 10:54:57;;;;;;;5.73;2.27;;;;;;;;;;6184930;28;20595;-56
2024/02/02 10:58:06;;;;;;;11.97;2.33;;;;;;;;;;6185689;28;20576;-58
2024/02/02 11:01:15;;;;;;;6.00;2.17;;;;;;;;;;6184460;28;20294;-58
2024/02/02 11:04:26;;;;;;;12.50;2.87;;;;;;;;;;6175659;28;20293;-57
2024/02/02 11:07:35;;;;;;;8.40;2.40;;;;;;;;;;6185460;28;20604;-58
2024/02/02 11:10:44;;;;;;;7.10;2.73;;;;;;;;;;6184800;28;20295;-58
2024/02/02 11:13:56;;;;;;;16.03;3.03;;;;;;;;;;6184998;28;20306;-58
2024/02/02 11:17:07;;;;;;;8.97;2.53;;;;;;;;;;6184169;28;20291;-58
2024/02/02 11:20:23;;;;;;;18.43;2.67;;;;;;;;;;6184451;28;20298;-58
2024/02/02 11:23:32;;;;;;;9.33;2.57;;;;;;;;;;6184951;28;20321;-58
2024/02/02 11:26:54;;;;;;;12.93;2.13;;;;;;;;;;6184296;28;20296;-58
2024/02/02 11:30:04;;;;;;;9.47;2.17;;;;;;;;;;6184660;28;20303;-58
2024/02/02 11:33:16;;;;;;;8.63;2.23;;;;;;;;;;6184913;28;20591;-59
2024/02/02 11:36:33;;;;;;;11.97;2.60;;;;;;;;;;6165857;28;20294;-60
2024/02/02 11:39:53;;;;;;;7.40;2.03;;;;;;;;;;6184259;28;20296;-57
2024/02/02 11:42:59;;;;;;;14.27;2.23;;;;;;;;;;6184538;28;20299;-59
2024/02/02 11:46:05;;;;;;;12.07;2.63;;;;;;;;;;6184241;28;20563;-57
2024/02/02 11:49:16;;;;;;;7.07;2.70;;;;;;;;;;6185066;28;20312;-60
2024/02/02 11:52:24;;;;;;;14.70;2.83;;;;;;;;;;6183838;28;20307;-58
2024/02/02 11:55:31;;;;;;;4.77;2.40;;;;;;;;;;6184125;28;20297;-57
2024/02/02 11:58:37;;;;;;;17.07;2.40;;;;;;;;;;6184663;28;20300;-58
2024/02/02 12:01:52;;;;;;;7.60;1.90;;;;;;;;;;6183957;28;20302;-57
2024/02/02 12:04:59;;;;;;;8.67;1.90;;;;;;;;;;6184201;28;20297;-56
2024/02/02 12:08:06;;;;;;;6.93;2.03;;;;;;;;;;6184696;28;20293;-58
2024/02/02 12:11:13;;;;;;;14.17;2.60;;;;;;;;;;6183816;28;20297;-56
2024/02/02 12:14:24;;;;;;;14.03;2.90;;;;;;;;;;6183681;28;20295;-55
2024/02/02 12:17:30;;;;;;;3.83;1.90;;;;;;;;;;6185097;28;20447;-56
2024/02/02 12:20:34;;;;;;;6.27;2.20;;;;;;;;;;6188458;28;20303;-57
2024/02/02 12:23:38;;;;;;;9.77;2.40;;;;;;;;;;6188606;28;20312;-57
2024/02/02 12:26:42;;;;;;;9.03;2.17;;;;;;;;;;6188123;28;20296;-56
2024/02/02 12:29:46;;;;;;;9.70;2.40;;;;;;;;;;6188219;28;20286;-58
2024/02/02 12:32:57;;;;;;;9.07;2.37;;;;;;;;;;6189129;28;20465;-58
2024/02/02 12:36:01;;;;;;;9.13;2.23;;;;;;;;;;6188347;28;20299;-57
2024/02/02 12:39:15;;;;;;;9.43;1.77;;;;;;;;;;6188055;28;20322;-58
2024/02/02 12:42:19;;;;;;;9.00;1.80;;;;;;;;;;6188173;28;20549;-58
2024/02/02 12:45:23;;;;;;;7.43;1.80;;;;;;;;;;6169138;28;20317;-60
2024/02/02 12:48:29;;;;;;;9.20;1.93;;;;;;;;;;6188110;28;20463;-57
2024/02/02 12:51:33;;;;;;;7.30;2.00;;;;;;;;;;6187026;28;20295;-58
2024/02/02 12:54:37;;;;;;;6.00;1.93;;;;;;;;;;6187472;28;20372;-58
2024/02/02 12:57:42;;;;;;;9.60;2.17;;;;;;;;;;6188235;28;20290;-58
2024/02/02 13:00:46;;;;;;;5.23;1.60;;;;;;;;;;6169861;28;20311;-57
2024/02/02 13:03:52;;;;;;;6.37;2.03;;;;;;;;;;6188272;28;20546;-59
2024/02/02 13:06:56;;;;;;;11.63;2.23;;;;;;;;;;6187718;28;20311;-57
2024/02/02 13:10:01;;;;;;;7.53;1.70;;;;;;;;;;6187693;28;20303;-57
2024/02/02 13:13:12;;;;;;;6.10;2.20;;;;;;;;;;6187901;28;20298;-58
2024/02/02 13:16:24;;;;;;;8.53;2.13;;;;;;;;;;6187007;28;20292;-58
2024/02/02 13:19:36;;;;;;;6.60;2.23;;;;;;;;;;6186853;28;20470;-56
2024/02/02 13:22:45;;;;;;;8.10;1.90;;;;;;;;;;6186990;28;20295;-57
2024/02/02 13:25:53;;;;;;;8.20;2.07;;;;;;;;;;6186401;28;20299;-59
2024/02/02 13:28:58;;;;;;;10.07;2.23;;;;;;;;;;6187299;28;20304;-58
2024/02/02 13:32:02;;;;;;;10.47;2.27;;;;;;;;;;6186775;28;20292;-58
2024/02/02 13:35:12;;;;;;;10.43;2.53;;;;;;;;;;6186698;28;20309;-58
2024/02/02 13:38:17;;;;;;;11.70;2.20;;;;;;;;;;6187224;28;20301;-58
2024/02/02 13:41:21;;;;;;;7.93;2.23;;;;;;;;;;6186495;28;20300;-56
2024/02/02 13:44:25;;;;;;;7.47;2.60;;;;;;;;;;6186709;28;20295;-58
2024/02/02 13:47:31;;;;;;;11.37;2.43;;;;;;;;;;6187222;28;20300;-58
2024/02/02 13:50:50;;;;;;;5.53;2.07;;;;;;;;;;6186563;28;20304;-55
2024/02/02 13:53:54;;;;;;;5.03;2.43;;;;;;;;;;6187376;28;20292;-56
2024/02/02 13:56:58;;;;;;;12.63;2.10;;;;;;;;;;6186370;28;20287;-58
2024/02/02 14:00:04;;;;;;;4.20;1.87;;;;;;;;;;6186094;28;20291;-57
2024/02/02 14:03:09;;;;;;;8.93;2.40;;;;;;;;;;6186600;28;20602;-58
2024/02/02 14:06:15;;;;;;;9.57;2.87;;;;;;;;;;6185860;28;20300;-57
2024/02/02 14:09:21;;;;;;;6.83;2.17;;;;;;;;;;6185530;28;20296;-61
2024/02/02 14:12:26;;;;;;;3.73;2.17;;;;;;;;;;6186601;28;20538;-58
2024/02/02 14:15:30;;;;;;;5.50;1.90;;;;;;;;;;6185988;28;20305;-57
2024/02/02 14:18:34;;;;;;;5.97;1.80;;;;;;;;;;6187478;28;20596;-58
2024/02/02 14:21:42;;;;;;;6.43;2.37;;;;;;;;;;6185492;28;20490;-56
2024/02/02 14:24:46;;;;;;;3.33;1.90;;;;;;;;;;6185189;28;20307;-57
2024/02/02 14:27:51;;;;;;;5.00;1.70;;;;;;;;;;6186199;28;20299;-58
2024/02/02 14:31:00;;;;;;;2.43;1.53;;;;;;;;;;6185800;28;20478;-60
2024/02/02 14:34:04;;;;;;;7.90;1.83;;;;;;;;;;6186092;28;20291;-58
2024/02/02 14:37:11;;;;;;;6.07;1.73;;;;;;;;;;6185512;28;20349;-58
2024/02/02 14:40:16;;;;;;;4.43;1.60;;;;;;;;;;6184449;28;20466;-58
2024/02/02 14:43:21;;;;;;;4.00;1.50;;;;;;;;;;6186025;28;20305;-59
2024/02/02 14:46:25;;;;;;;5.63;1.60;;;;;;;;;;6185078;28;20297;-57
2024/02/02 14:49:29;;;;;;;2.37;1.30;;;;;;;;;;6185042;28;20303;-58
2024/02/02 14:52:35;;;;;;;3.13;1.77;;;;;;;;;;6185403;28;20298;-57
2024/02/02 14:55:39;;;;;;;2.63;1.33;;;;;;;;;;6184897;28;20299;-57
2024/02/02 14:58:45;;;;;;;3.20;1.60;;;;;;;;;;6185730;28;20315;-54
2024/02/02 15:01:49;;;;;;;1.47;1.40;;;;;;;;;;6184771;28;20297;-59
2024/02/02 15:04:55;;;;;;;1.43;1.33;;;;;;;;;;6185144;28;20295;-59
2024/02/02 15:08:05;;;;;;;1.30;1.20;;;;;;;;;;6185484;28;20295;-59
2024/02/02 15:11:09;;;;;;;2.83;1.50;;;;;;;;;;6184795;28;20300;-59
2024/02/02 15:14:14;;;;;;;6.57;1.40;;;;;;;;;;6184735;28;20472;-56
2024/02/02 15:17:19;;;;;;;1.40;1.30;;;;;;;;;;6185000;28;20596;-58
2024/02/02 15:20:23;;;;;;;2.60;1.03;;;;;;;;;;6184405;28;20314;-59
2024/02/02 15:23:28;;;;;;;1.70;1.40;;;;;;;;;;6184529;28;20312;-58
2024/02/02 15:26:36;;;;;;;1.77;1.43;;;;;;;;;;6184274;28;20296;-58
2024/02/02 15:29:40;;;;;;;1.40;1.20;;;;;;;;;;6184355;28;20296;-58
2024/02/02 15:32:45;;;;;;;2.90;1.20;;;;;;;;;;6184753;28;20616;-58
2024/02/02 15:35:53;;;;;;;3.77;1.93;;;;;;;;;;6184435;28;20300;-57
2024/02/02 15:38:58;;;;;;;3.73;1.50;;;;;;;;;;6185040;28;20303;-57
2024/02/02 15:42:23;;;;;;;2.27;1.23;;;;;;;;;;6183893;28;20340;-58
2024/02/02 15:45:27;;;;;;;1.53;1.20;;;;;;;;;;6184448;28;20294;-55
2024/02/02 15:48:32;;;;;;;1.53;1.33;;;;;;;;;;6184742;28;20295;-57
2024/02/02 15:51:37;;;;;;;1.30;1.20;;;;;;;;;;6183965;28;20315;-59
2024/02/02 15:54:43;;;;;;;1.67;1.30;;;;;;;;;;6188827;28;20295;-57
2024/02/02 15:57:50;;;;;;;1.70;1.03;;;;;;;;;;6189685;28;20298;-58
2024/02/02 16:00:55;;;;;;;3.93;1.30;;;;;;;;;;6189264;28;20458;-56
2024/02/02 16:04:00;;;;;;;2.20;1.20;;;;;;;;;;6189345;28;20297;-56
2024/02/02 16:07:05;;;;;;;2.37;1.20;;;;;;;;;;6189106;28;20286;-60
2024/02/02 16:10:12;;;;;;;3.00;1.30;;;;;;;;;;6189027;28;20291;-58
2024/02/02 16:13:16;;;;;;;3.00;1.20;;;;;;;;;;6188969;28;20296;-59
2024/02/02 16:16:20;;;;;;;3.40;1.43;;;;;;;;;;6188502;28;20436;-59
2024/02/02 16:19:26;;;;;;;3.40;1.20;;;;;;;;;;6188227;28;20296;-60
2024/02/02 16:22:30;;;;;;;4.17;1.37;;;;;;;;;;6189226;28;20292;-57
2024/02/02 16:25:35;;;;;;;1.67;1.27;;;;;;;;;;6188269;28;20518;-60
2024/02/02 16:28:39;;;;;;;4.90;1.60;;;;;;;;;;6188910;28;20375;-60
2024/02/02 16:31:44;;;;;;;3.60;1.33;;;;;;;;;;6188229;28;20312;-57
2024/02/02 16:34:48;;;;;;;1.13;1.00;;;;;;;;;;6187409;28;20369;-58
2024/02/02 16:37:52;;;;;;;1.10;1.10;;;;;;;;;;6187979;28;20296;-57
2024/02/02 16:40:57;;;;;;;3.37;1.00;;;;;;;;;;6188217;28;20287;-54
2024/02/02 16:44:01;;;;;;;2.47;1.20;;;;;;;;;;6188614;28;20300;-58
2024/02/02 16:47:05;;;;;;;1.87;1.40;;;;;;;;;;6188940;28;20562;-57
2024/02/02 16:50:10;;;;;;;1.37;1.20;;;;;;;;;;6187817;28;20592;-58
2024/02/02 16:53:14;;;;;;;1.63;1.37;;;;;;;;;;6188021;28;20301;-57
2024/02/02 16:56:20;;;;;;;1.50;1.40;;;;;;;;;;6187188;28;20322;-57
2024/02/02 16:59:24;;;;;;;1.13;1.10;;;;;;;;;;6170532;28;20293;-57
2024/02/02 17:02:28;;;;;;;2.53;1.43;;;;;;;;;;6187686;28;20478;-60
2024/02/02 17:05:31;;;;;;;1.60;1.20;;;;;;;;;;6186923;28;20297;-58
2024/02/02 17:08:37;;;;;;;2.10;1.20;;;;;;;;;;6188920;28;20296;-58
2024/02/02 17:11:42;;;;;;;1.00;1.00;;;;;;;;;;6187264;28;20533;-59
2024/02/02 17:14:46;;;;;;;0.97;0.97;;;;;;;;;;6187099;28;20297;-59
2024/02/02 17:17:50;;;;;;;5.03;1.67;;;;;;;;;;6187539;28;20301;-56
2024/02/02 17:20:54;;;;;;;1.80;1.20;;;;;;;;;;6186783;28;20476;-59
2024/02/02 17:23:58;;;;;;;1.90;1.30;;;;;;;;;;6187252;28;20303;-56
2024/02/02 17:27:04;;;;;;;1.30;1.27;;;;;;;;;;6186408;28;20305;-57
2024/02/02 17:30:09;;;;;;;1.27;1.10;;;;;;;;;;6186676;28;20304;-57
2024/02/02 17:33:14;;;;;;;1.63;1.27;;;;;;;;;;6187769;28;20232;-56
2024/02/02 17:36:18;;;;;;;1.60;1.50;;;;;;;;;;6186631;28;20303;-57
2024/02/02 17:39:22;;;;;;;2.60;1.00;;;;;;;;;;6186131;28;20486;-58
2024/02/02 17:42:28;;;;;;;1.10;1.10;;;;;;;;;;6187335;28;20299;-60
2024/02/02 17:45:32;;;;;;;1.60;1.10;;;;;;;;;;6186670;28;20300;-57
2024/02/02 17:48:36;;;;;;;1.27;1.27;;;;;;;;;;6186930;28;20295;-58
2024/02/02 17:51:40;;;;;;;1.50;1.23;;;;;;;;;;6186504;28;20459;-59
2024/02/02 17:54:45;;;;;;;1.57;1.57;;;;;;;;;;6164670;28;20324;-60
2024/02/02 17:57:50;;;;;;;1.37;1.37;;;;;;;;;;6162744;29;20546;-58
2024/02/02 18:00:54;;;;;;;1.30;1.30;;;;;;;;;;6161278;28;20313;-56
2024/02/02 18:03:58;;;;;;;1.50;1.40;;;;;;;;;;6162711;29;20291;-57
2024/02/02 18:07:03;;;;;;;1.90;1.80;;;;;;;;;;6162396;29;20296;-56
2024/02/02 18:10:10;;;;;;;4.97;2.20;;;;;;;;;;6161930;28;20305;-57
2024/02/02 18:13:15;;;;;;;1.70;1.60;;;;;;;;;;6162262;28;20306;-59
2024/02/02 18:16:19;;;;;;;1.83;1.67;;;;;;;;;;6159049;28;20305;-56
2024/02/02 18:19:23;;;;;;;3.53;2.20;;;;;;;;;;6161863;28;20314;-58
2024/02/02 18:22:27;;;;;;;3.93;2.37;;;;;;;;;;6160369;29;20489;-58
2024/02/02 18:25:31;;;;;;;1.63;1.53;;;;;;;;;;6167023;28;20299;-57
2024/02/02 18:28:37;;;;;;;1.30;1.30;;;;;;;;;;6186220;28;20300;-56
2024/02/02 18:31:41;;;;;;;1.23;1.20;;;;;;;;;;6185248;28;20300;-58
2024/02/02 18:34:45;;;;;;;1.13;1.13;;;;;;;;;;6185794;28;20476;-58
2024/02/02 18:37:49;;;;;;;1.50;1.50;;;;;;;;;;6186318;28;20289;-59